sensor_id;sensor_type;location;lat;lon;timestamp;pressure;altitude;pressure_sealevel;temperature;humidity
6565;BME280;3316;44.118;27.258;2023-04-25T00:01:33;100327.63;;;13.07;100.00
6565;BME280;3316;44.118;27.258;2023-04-25T00:04:01;100341.75;;;13.06;100.00
6565;BME280;3316;44.118;27.258;2023-04-25T00:06:27;100331.28;;;13.02;100.00
6565;BME280;3316;44.118;27.258;2023-04-25T00:08:53;100281.06;;;12.68;100.00
6565;BME280;3316;44.118;27.258;2023-04-25T00:11:19;100330.38;;;13.04;100.00
6565;BME280;3316;44.118;27.258;2023-04-25T00:13:44;100322.56;;;12.98;100.00
6565;BME280;3316;44.118;27.258;2023-04-25T00:16:11;100312.84;;;13.00;100.00
6565;BME280;3316;44.118;27.258;2023-04-25T00:18:38;100311.16;;;12.96;100.00
6565;BME280;3316;44.118;27.258;2023-04-25T00:21:04;100315.78;;;12.88;100.00
6565;BME280;3316;44.118;27.258;2023-04-25T00:23:31;100314.00;;;12.89;100.00
6565;BME280;3316;44.118;27.258;2023-04-25T00:25:56;100314.78;;;12.92;100.00
6565;BME280;3316;44.118;27.258;2023-04-25T00:28:22;100306.13;;;12.87;100.00
6565;BME280;3316;44.118;27.258;2023-04-25T00:30:47;100300.06;;;12.82;100.00
6565;BME280;3316;44.118;27.258;2023-04-25T00:33:13;100294.75;;;12.84;100.00
6565;BME280;3316;44.118;27.258;2023-04-25T00:35:38;100293.97;;;12.80;100.00
6565;BME280;3316;44.118;27.258;2023-04-25T00:38:04;100318.56;;;12.82;100.00
6565;BME280;3316;44.118;27.258;2023-04-25T00:40:29;100247.91;;;12.57;100.00
6565;BME280;3316;44.118;27.258;2023-04-25T00:42:54;100272.94;;;12.77;100.00
6565;BME280;3316;44.118;27.258;2023-04-25T00:45:20;100280.72;;;12.83;100.00
6565;BME280;3316;44.118;27.258;2023-04-25T00:47:46;100283.50;;;12.77;100.00
6565;BME280;3316;44.118;27.258;2023-04-25T00:50:13;100293.06;;;12.81;100.00
6565;BME280;3316;44.118;27.258;2023-04-25T00:52:43;100283.34;;;12.83;100.00
6565;BME280;3316;44.118;27.258;2023-04-25T00:55:10;100283.34;;;12.82;100.00
6565;BME280;3316;44.118;27.258;2023-04-25T00:57:36;100284.25;;;12.82;100.00
6565;BME280;3316;44.118;27.258;2023-04-25T01:00:03;100278.97;;;12.82;100.00
6565;BME280;3316;44.118;27.258;2023-04-25T01:02:32;100274.56;;;12.83;100.00
6565;BME280;3316;44.118;27.258;2023-04-25T01:04:57;100273.69;;;12.82;100.00
6565;BME280;3316;44.118;27.258;2023-04-25T01:07:23;100257.19;;;12.73;100.00
6565;BME280;3316;44.118;27.258;2023-04-25T01:09:51;100265.06;;;12.74;100.00
6565;BME280;3316;44.118;27.258;2023-04-25T01:12:17;100267.63;;;12.79;100.00
6565;BME280;3316;44.118;27.258;2023-04-25T01:14:42;100260.53;;;12.81;100.00
6565;BME280;3316;44.118;27.258;2023-04-25T01:17:09;100247.53;;;12.73;100.00
6565;BME280;3316;44.118;27.258;2023-04-25T01:19:34;100250.94;;;12.77;100.00
6565;BME280;3316;44.118;27.258;2023-04-25T01:22:00;100254.47;;;12.77;100.00
6565;BME280;3316;44.118;27.258;2023-04-25T01:24:26;100250.84;;;12.81;100.00
6565;BME280;3316;44.118;27.258;2023-04-25T01:26:52;100232.53;;;12.74;100.00
6565;BME280;3316;44.118;27.258;2023-04-25T01:29:19;100249.91;;;12.82;100.00
6565;BME280;3316;44.118;27.258;2023-04-25T01:31:46;100236.81;;;12.79;100.00
6565;BME280;3316;44.118;27.258;2023-04-25T01:34:12;100218.50;;;12.72;100.00
6565;BME280;3316;44.118;27.258;2023-04-25T01:36:38;100228.13;;;12.74;100.00
6565;BME280;3316;44.118;27.258;2023-04-25T01:39:04;100237.81;;;12.74;100.00
6565;BME280;3316;44.118;27.258;2023-04-25T01:41:30;100245.47;;;12.84;100.00
6565;BME280;3316;44.118;27.258;2023-04-25T01:43:55;100226.25;;;12.78;100.00
6565;BME280;3316;44.118;27.258;2023-04-25T01:46:21;100226.34;;;12.75;100.00
6565;BME280;3316;44.118;27.258;2023-04-25T01:48:46;100233.41;;;12.74;100.00
6565;BME280;3316;44.118;27.258;2023-04-25T01:51:12;100221.94;;;12.75;100.00
6565;BME280;3316;44.118;27.258;2023-04-25T01:53:39;100226.41;;;12.73;100.00
6565;BME280;3316;44.118;27.258;2023-04-25T01:56:05;100218.59;;;12.69;100.00
6565;BME280;3316;44.118;27.258;2023-04-25T01:58:31;100145.75;;;12.28;100.00
6565;BME280;3316;44.118;27.258;2023-04-25T02:00:56;100220.50;;;12.64;100.00
6565;BME280;3316;44.118;27.258;2023-04-25T02:03:22;100221.19;;;12.70;100.00
6565;BME280;3316;44.118;27.258;2023-04-25T02:05:48;100183.84;;;12.51;100.00
6565;BME280;3316;44.118;27.258;2023-04-25T02:08:13;100219.53;;;12.66;100.00
6565;BME280;3316;44.118;27.258;2023-04-25T02:10:39;100229.78;;;12.78;100.00
6565;BME280;3316;44.118;27.258;2023-04-25T02:13:04;100227.19;;;12.77;100.00
6565;BME280;3316;44.118;27.258;2023-04-25T02:15:30;100234.94;;;12.83;100.00
6565;BME280;3316;44.118;27.258;2023-04-25T02:17:56;100209.47;;;12.80;100.00
6565;BME280;3316;44.118;27.258;2023-04-25T02:20:22;100219.16;;;12.81;100.00
6565;BME280;3316;44.118;27.258;2023-04-25T02:22:48;100218.22;;;12.82;100.00
6565;BME280;3316;44.118;27.258;2023-04-25T02:25:14;100221.94;;;12.75;100.00
6565;BME280;3316;44.118;27.258;2023-04-25T02:27:41;100217.41;;;12.80;100.00
6565;BME280;3316;44.118;27.258;2023-04-25T02:30:07;100210.41;;;12.79;100.00
6565;BME280;3316;44.118;27.258;2023-04-25T02:32:33;100206.00;;;12.78;100.00
6565;BME280;3316;44.118;27.258;2023-04-25T02:35:00;100225.13;;;12.88;100.00
6565;BME280;3316;44.118;27.258;2023-04-25T02:37:31;100200.75;;;12.78;100.00
6565;BME280;3316;44.118;27.258;2023-04-25T02:39:57;100207.66;;;12.82;100.00
6565;BME280;3316;44.118;27.258;2023-04-25T02:42:22;100153.78;;;12.57;100.00
6565;BME280;3316;44.118;27.258;2023-04-25T02:44:48;100209.22;;;12.91;100.00
6565;BME280;3316;44.118;27.258;2023-04-25T02:47:13;100174.50;;;12.72;100.00
6565;BME280;3316;44.118;27.258;2023-04-25T02:49:39;100203.94;;;12.89;100.00
6565;BME280;3316;44.118;27.258;2023-04-25T02:52:04;100176.81;;;12.84;100.00
6565;BME280;3316;44.118;27.258;2023-04-25T02:54:30;100215.00;;;13.06;100.00
6565;BME280;3316;44.118;27.258;2023-04-25T02:56:55;100215.81;;;13.08;100.00
6565;BME280;3316;44.118;27.258;2023-04-25T02:59:21;100174.75;;;12.95;100.00
6565;BME280;3316;44.118;27.258;2023-04-25T03:01:46;100196.06;;;13.21;100.00
6565;BME280;3316;44.118;27.258;2023-04-25T03:04:12;100203.50;;;13.39;100.00
6565;BME280;3316;44.118;27.258;2023-04-25T03:06:37;100195.84;;;13.29;100.00
6565;BME280;3316;44.118;27.258;2023-04-25T03:09:03;100203.81;;;13.27;100.00
6565;BME280;3316;44.118;27.258;2023-04-25T03:11:29;100191.88;;;13.14;100.00
6565;BME280;3316;44.118;27.258;2023-04-25T03:13:54;100203.22;;;13.18;100.00
6565;BME280;3316;44.118;27.258;2023-04-25T03:16:20;100205.25;;;13.07;100.00
6565;BME280;3316;44.118;27.258;2023-04-25T03:18:46;100201.97;;;12.97;100.00
6565;BME280;3316;44.118;27.258;2023-04-25T03:21:11;100210.66;;;13.04;100.00
6565;BME280;3316;44.118;27.258;2023-04-25T03:23:37;100208.97;;;13.00;100.00
6565;BME280;3316;44.118;27.258;2023-04-25T03:26:02;100201.81;;;13.05;100.00
6565;BME280;3316;44.118;27.258;2023-04-25T03:28:28;100200.09;;;13.02;100.00
6565;BME280;3316;44.118;27.258;2023-04-25T03:30:53;100167.34;;;12.76;100.00
6565;BME280;3316;44.118;27.258;2023-04-25T03:33:19;100172.00;;;12.66;100.00
6565;BME280;3316;44.118;27.258;2023-04-25T03:35:45;100147.22;;;12.39;100.00
6565;BME280;3316;44.118;27.258;2023-04-25T03:38:10;100178.63;;;12.48;100.00
6565;BME280;3316;44.118;27.258;2023-04-25T03:40:36;100183.38;;;12.36;100.00
6565;BME280;3316;44.118;27.258;2023-04-25T03:43:01;100173.97;;;12.24;100.00
6565;BME280;3316;44.118;27.258;2023-04-25T03:45:26;100147.75;;;12.18;100.00
6565;BME280;3316;44.118;27.258;2023-04-25T03:47:52;100167.78;;;12.25;100.00
6565;BME280;3316;44.118;27.258;2023-04-25T03:50:17;100173.00;;;12.27;100.00
6565;BME280;3316;44.118;27.258;2023-04-25T03:52:43;100159.13;;;12.20;100.00
6565;BME280;3316;44.118;27.258;2023-04-25T03:55:09;100160.66;;;12.29;100.00
6565;BME280;3316;44.118;27.258;2023-04-25T03:57:35;100144.34;;;12.15;100.00
6565;BME280;3316;44.118;27.258;2023-04-25T04:00:01;100173.63;;;12.38;100.00
6565;BME280;3316;44.118;27.258;2023-04-25T04:02:26;100181.94;;;12.90;100.00
6565;BME280;3316;44.118;27.258;2023-04-25T04:04:52;100190.81;;;13.51;100.00
6565;BME280;3316;44.118;27.258;2023-04-25T04:07:17;100187.59;;;13.70;100.00
6565;BME280;3316;44.118;27.258;2023-04-25T04:09:43;100195.69;;;14.21;100.00
6565;BME280;3316;44.118;27.258;2023-04-25T04:12:08;100196.34;;;14.55;100.00
6565;BME280;3316;44.118;27.258;2023-04-25T04:14:34;100191.66;;;14.89;100.00
6565;BME280;3316;44.118;27.258;2023-04-25T04:16:59;100197.47;;;14.99;100.00
6565;BME280;3316;44.118;27.258;2023-04-25T04:19:25;100206.94;;;15.06;100.00
6565;BME280;3316;44.118;27.258;2023-04-25T04:21:51;100206.88;;;15.32;100.00
6565;BME280;3316;44.118;27.258;2023-04-25T04:24:16;100219.00;;;15.64;100.00
6565;BME280;3316;44.118;27.258;2023-04-25T04:26:42;100219.63;;;16.15;100.00
6565;BME280;3316;44.118;27.258;2023-04-25T04:29:10;100219.56;;;16.61;100.00
6565;BME280;3316;44.118;27.258;2023-04-25T04:31:36;100236.19;;;17.27;100.00
6565;BME280;3316;44.118;27.258;2023-04-25T04:34:01;100236.88;;;16.70;100.00
6565;BME280;3316;44.118;27.258;2023-04-25T04:36:29;100234.19;;;16.91;100.00
6565;BME280;3316;44.118;27.258;2023-04-25T04:38:54;100229.78;;;16.70;100.00
6565;BME280;3316;44.118;27.258;2023-04-25T04:41:21;100225.16;;;16.32;100.00
6565;BME280;3316;44.118;27.258;2023-04-25T04:43:47;100226.38;;;16.24;100.00
6565;BME280;3316;44.118;27.258;2023-04-25T04:46:13;100189.28;;;16.65;100.00
6565;BME280;3316;44.118;27.258;2023-04-25T04:48:38;100226.16;;;17.92;100.00
6565;BME280;3316;44.118;27.258;2023-04-25T04:51:06;100223.06;;;18.55;100.00
6565;BME280;3316;44.118;27.258;2023-04-25T04:53:31;100224.06;;;19.23;100.00
6565;BME280;3316;44.118;27.258;2023-04-25T04:55:57;100232.19;;;19.87;93.23
6565;BME280;3316;44.118;27.258;2023-04-25T04:58:23;100233.78;;;19.41;96.12
6565;BME280;3316;44.118;27.258;2023-04-25T05:00:48;100231.91;;;19.09;98.46
6565;BME280;3316;44.118;27.258;2023-04-25T05:03:13;100234.13;;;18.29;100.00
6565;BME280;3316;44.118;27.258;2023-04-25T05:05:39;100213.16;;;18.93;100.00
6565;BME280;3316;44.118;27.258;2023-04-25T05:08:07;100214.31;;;19.56;96.79
6565;BME280;3316;44.118;27.258;2023-04-25T05:10:33;100217.47;;;20.73;87.34
6565;BME280;3316;44.118;27.258;2023-04-25T05:12:58;100207.22;;;20.50;85.17
6565;BME280;3316;44.118;27.258;2023-04-25T05:15:24;100230.16;;;20.99;83.05
6565;BME280;3316;44.118;27.258;2023-04-25T05:17:49;100216.28;;;20.93;81.90
6565;BME280;3316;44.118;27.258;2023-04-25T05:20:14;100226.97;;;22.23;74.14
6565;BME280;3316;44.118;27.258;2023-04-25T05:22:40;100201.72;;;21.70;74.33
6565;BME280;3316;44.118;27.258;2023-04-25T05:25:08;100225.81;;;22.67;71.10
6565;BME280;3316;44.118;27.258;2023-04-25T05:27:33;100224.09;;;23.18;66.46
6565;BME280;3316;44.118;27.258;2023-04-25T05:29:59;100217.22;;;21.51;73.16
6565;BME280;3316;44.118;27.258;2023-04-25T05:32:25;100219.22;;;21.04;77.94
6565;BME280;3316;44.118;27.258;2023-04-25T05:34:50;100221.25;;;20.85;81.10
6565;BME280;3316;44.118;27.258;2023-04-25T05:37:16;100226.97;;;21.08;80.40
6565;BME280;3316;44.118;27.258;2023-04-25T05:39:42;100200.06;;;21.25;77.93
6565;BME280;3316;44.118;27.258;2023-04-25T05:42:07;100220.41;;;21.28;79.11
6565;BME280;3316;44.118;27.258;2023-04-25T05:44:33;100220.34;;;22.55;72.25
6565;BME280;3316;44.118;27.258;2023-04-25T05:46:58;100215.06;;;23.07;66.91
6565;BME280;3316;44.118;27.258;2023-04-25T05:49:24;100218.16;;;22.47;67.67
6565;BME280;3316;44.118;27.258;2023-04-25T05:51:49;100223.56;;;21.06;76.63
6565;BME280;3316;44.118;27.258;2023-04-25T05:54:15;100211.91;;;20.47;81.65
6565;BME280;3316;44.118;27.258;2023-04-25T05:56:40;100206.16;;;19.75;88.39
6565;BME280;3316;44.118;27.258;2023-04-25T05:59:06;100207.19;;;19.39;93.50
6565;BME280;3316;44.118;27.258;2023-04-25T06:01:31;100208.72;;;18.94;98.47
6565;BME280;3316;44.118;27.258;2023-04-25T06:03:57;100209.16;;;19.19;99.49
6565;BME280;3316;44.118;27.258;2023-04-25T06:06:22;100203.97;;;19.33;97.96
6565;BME280;3316;44.118;27.258;2023-04-25T06:08:48;100209.81;;;19.89;94.18
6565;BME280;3316;44.118;27.258;2023-04-25T06:11:13;100210.16;;;19.83;94.16
6565;BME280;3316;44.118;27.258;2023-04-25T06:13:39;100211.78;;;19.53;95.55
6565;BME280;3316;44.118;27.258;2023-04-25T06:16:04;100205.06;;;19.46;96.43
6565;BME280;3316;44.118;27.258;2023-04-25T06:18:30;100208.66;;;19.45;97.59
6565;BME280;3316;44.118;27.258;2023-04-25T06:20:55;100215.31;;;19.86;96.96
6565;BME280;3316;44.118;27.258;2023-04-25T06:23:21;100216.03;;;20.36;91.64
6565;BME280;3316;44.118;27.258;2023-04-25T06:25:46;100200.53;;;20.43;89.03
6565;BME280;3316;44.118;27.258;2023-04-25T06:28:12;100213.44;;;20.51;87.78
6565;BME280;3316;44.118;27.258;2023-04-25T06:30:37;100216.47;;;20.29;88.83
6565;BME280;3316;44.118;27.258;2023-04-25T06:33:03;100211.19;;;20.12;91.41
6565;BME280;3316;44.118;27.258;2023-04-25T06:35:28;100203.72;;;20.03;92.47
6565;BME280;3316;44.118;27.258;2023-04-25T06:37:54;100197.94;;;20.10;91.35
6565;BME280;3316;44.118;27.258;2023-04-25T06:40:19;100206.91;;;20.25;89.77
6565;BME280;3316;44.118;27.258;2023-04-25T06:42:45;100209.41;;;20.12;90.52
6565;BME280;3316;44.118;27.258;2023-04-25T06:45:10;100203.19;;;19.96;92.04
6565;BME280;3316;44.118;27.258;2023-04-25T06:47:36;100212.16;;;19.95;92.45
6565;BME280;3316;44.118;27.258;2023-04-25T06:50:01;100217.66;;;19.92;92.88
6565;BME280;3316;44.118;27.258;2023-04-25T06:52:27;100183.00;;;19.75;93.64
6565;BME280;3316;44.118;27.258;2023-04-25T06:54:52;100202.63;;;19.74;94.41
6565;BME280;3316;44.118;27.258;2023-04-25T06:57:18;100180.09;;;19.47;95.56
6565;BME280;3316;44.118;27.258;2023-04-25T06:59:43;100178.63;;;19.41;96.81
6565;BME280;3316;44.118;27.258;2023-04-25T07:02:09;100211.47;;;19.59;96.76
6565;BME280;3316;44.118;27.258;2023-04-25T07:04:34;100212.94;;;19.15;100.00
6565;BME280;3316;44.118;27.258;2023-04-25T07:07:00;100210.03;;;19.02;100.00
6565;BME280;3316;44.118;27.258;2023-04-25T07:09:27;100211.50;;;18.91;100.00
6565;BME280;3316;44.118;27.258;2023-04-25T07:11:53;100205.09;;;18.78;100.00
6565;BME280;3316;44.118;27.258;2023-04-25T07:14:18;100194.00;;;18.51;100.00
6565;BME280;3316;44.118;27.258;2023-04-25T07:16:44;100202.50;;;18.93;100.00
6565;BME280;3316;44.118;27.258;2023-04-25T07:19:09;100189.91;;;19.79;100.00
6565;BME280;3316;44.118;27.258;2023-04-25T07:21:35;100211.53;;;20.98;93.92
6565;BME280;3316;44.118;27.258;2023-04-25T07:24:01;100211.56;;;21.70;85.76
6565;BME280;3316;44.118;27.258;2023-04-25T07:26:27;100203.63;;;21.68;83.59
6565;BME280;3316;44.118;27.258;2023-04-25T07:28:52;100115.38;;;20.67;85.30
6565;BME280;3316;44.118;27.258;2023-04-25T07:31:19;100190.16;;;21.27;86.35
6565;BME280;3316;44.118;27.258;2023-04-25T07:33:45;100188.38;;;21.84;83.29
6565;BME280;3316;44.118;27.258;2023-04-25T07:36:11;100188.84;;;22.85;77.13
6565;BME280;3316;44.118;27.258;2023-04-25T07:38:37;100176.47;;;23.59;69.57
6565;BME280;3316;44.118;27.258;2023-04-25T07:41:03;100189.50;;;24.02;67.99
6565;BME280;3316;44.118;27.258;2023-04-25T07:43:28;100181.38;;;23.91;66.68
6565;BME280;3316;44.118;27.258;2023-04-25T07:45:54;100197.47;;;24.03;65.95
6565;BME280;3316;44.118;27.258;2023-04-25T07:48:19;100196.28;;;24.20;65.40
6565;BME280;3316;44.118;27.258;2023-04-25T07:50:45;100195.88;;;24.37;64.67
6565;BME280;3316;44.118;27.258;2023-04-25T07:53:10;100188.13;;;24.92;61.83
6565;BME280;3316;44.118;27.258;2023-04-25T07:55:36;100192.13;;;25.21;59.38
6565;BME280;3316;44.118;27.258;2023-04-25T07:58:05;100194.47;;;25.26;59.03
6565;BME280;3316;44.118;27.258;2023-04-25T08:00:30;100191.38;;;25.19;59.36
6565;BME280;3316;44.118;27.258;2023-04-25T08:02:56;100192.47;;;25.17;58.49
6565;BME280;3316;44.118;27.258;2023-04-25T08:05:21;100189.91;;;24.81;58.85
6565;BME280;3316;44.118;27.258;2023-04-25T08:07:47;100190.94;;;24.67;60.65
6565;BME280;3316;44.118;27.258;2023-04-25T08:10:12;100183.84;;;25.01;59.46
6565;BME280;3316;44.118;27.258;2023-04-25T08:12:38;100188.69;;;25.19;58.98
6565;BME280;3316;44.118;27.258;2023-04-25T08:15:05;100180.09;;;25.14;58.51
6565;BME280;3316;44.118;27.258;2023-04-25T08:17:31;100191.38;;;25.08;58.88
6565;BME280;3316;44.118;27.258;2023-04-25T08:19:57;100191.13;;;25.68;57.65
6565;BME280;3316;44.118;27.258;2023-04-25T08:22:22;100187.03;;;25.51;56.87
6565;BME280;3316;44.118;27.258;2023-04-25T08:24:48;100188.97;;;24.22;60.40
6565;BME280;3316;44.118;27.258;2023-04-25T08:27:13;100184.06;;;23.78;64.00
6565;BME280;3316;44.118;27.258;2023-04-25T08:29:39;100186.56;;;23.68;65.59
6565;BME280;3316;44.118;27.258;2023-04-25T08:32:04;100187.22;;;23.59;66.23
6565;BME280;3316;44.118;27.258;2023-04-25T08:34:30;100191.00;;;23.44;67.44
6565;BME280;3316;44.118;27.258;2023-04-25T08:36:55;100195.78;;;23.27;68.63
6565;BME280;3316;44.118;27.258;2023-04-25T08:39:21;100186.72;;;23.02;69.71
6565;BME280;3316;44.118;27.258;2023-04-25T08:41:46;100184.22;;;22.87;71.52
6565;BME280;3316;44.118;27.258;2023-04-25T08:44:13;100196.44;;;22.52;74.49
6565;BME280;3316;44.118;27.258;2023-04-25T08:46:41;100190.09;;;22.26;77.80
6565;BME280;3316;44.118;27.258;2023-04-25T08:49:07;100196.19;;;21.87;79.92
6565;BME280;3316;44.118;27.258;2023-04-25T08:51:33;100197.13;;;21.58;83.22
6565;BME280;3316;44.118;27.258;2023-04-25T08:54:09;100204.34;;;21.14;87.34
6565;BME280;3316;44.118;27.258;2023-04-25T08:56:36;100182.22;;;20.67;92.21
6565;BME280;3316;44.118;27.258;2023-04-25T08:59:03;100199.31;;;20.49;95.32
6565;BME280;3316;44.118;27.258;2023-04-25T09:01:28;100199.31;;;20.17;100.00
6565;BME280;3316;44.118;27.258;2023-04-25T09:03:54;100197.75;;;19.98;100.00
6565;BME280;3316;44.118;27.258;2023-04-25T09:06:19;100196.53;;;20.03;100.00
6565;BME280;3316;44.118;27.258;2023-04-25T09:08:45;100194.97;;;19.99;100.00
6565;BME280;3316;44.118;27.258;2023-04-25T09:11:12;100197.84;;;19.96;100.00
6565;BME280;3316;44.118;27.258;2023-04-25T09:13:38;100183.91;;;19.59;100.00
6565;BME280;3316;44.118;27.258;2023-04-25T09:16:03;100197.53;;;19.54;100.00
6565;BME280;3316;44.118;27.258;2023-04-25T09:18:31;100193.25;;;19.34;100.00
6565;BME280;3316;44.118;27.258;2023-04-25T09:21:05;100186.19;;;19.16;100.00
6565;BME280;3316;44.118;27.258;2023-04-25T09:23:43;100182.97;;;18.93;100.00
6565;BME280;3316;44.118;27.258;2023-04-25T09:26:08;100186.81;;;18.87;100.00
6565;BME280;3316;44.118;27.258;2023-04-25T09:28:35;100190.66;;;18.99;100.00
6565;BME280;3316;44.118;27.258;2023-04-25T09:31:01;100182.03;;;18.77;100.00
6565;BME280;3316;44.118;27.258;2023-04-25T09:33:32;100187.13;;;18.81;100.00
6565;BME280;3316;44.118;27.258;2023-04-25T09:36:06;100187.13;;;18.81;100.00
6565;BME280;3316;44.118;27.258;2023-04-25T09:38:39;100172.69;;;19.02;100.00
6565;BME280;3316;44.118;27.258;2023-04-25T09:41:07;100186.22;;;19.32;100.00
6565;BME280;3316;44.118;27.258;2023-04-25T09:43:32;100181.56;;;19.52;100.00
6565;BME280;3316;44.118;27.258;2023-04-25T09:45:58;100169.03;;;20.18;100.00
6565;BME280;3316;44.118;27.258;2023-04-25T09:48:26;100173.88;;;21.02;100.00
6565;BME280;3316;44.118;27.258;2023-04-25T09:51:12;100184.31;;;21.63;99.23
6565;BME280;3316;44.118;27.258;2023-04-25T09:53:43;100170.72;;;21.94;97.27
6565;BME280;3316;44.118;27.258;2023-04-25T09:56:10;100178.16;;;22.18;94.58
6565;BME280;3316;44.118;27.258;2023-04-25T09:58:37;100181.03;;;22.41;91.98
6565;BME280;3316;44.118;27.258;2023-04-25T10:01:05;100171.41;;;22.39;90.00
6565;BME280;3316;44.118;27.258;2023-04-25T10:03:32;100172.94;;;22.55;87.27
6565;BME280;3316;44.118;27.258;2023-04-25T10:06:02;100177.59;;;21.98;91.43
6565;BME280;3316;44.118;27.258;2023-04-25T10:08:36;100180.03;;;21.89;91.15
6565;BME280;3316;44.118;27.258;2023-04-25T10:11:07;100168.25;;;21.77;91.31
6565;BME280;3316;44.118;27.258;2023-04-25T10:13:34;100174.75;;;21.73;91.54
6565;BME280;3316;44.118;27.258;2023-04-25T10:16:02;100174.84;;;21.58;92.43
6565;BME280;3316;44.118;27.258;2023-04-25T10:18:29;100176.28;;;21.35;94.38
6565;BME280;3316;44.118;27.258;2023-04-25T10:20:55;100178.59;;;21.41;95.34
6565;BME280;3316;44.118;27.258;2023-04-25T10:23:21;100176.16;;;21.22;96.26
6565;BME280;3316;44.118;27.258;2023-04-25T10:25:48;100136.03;;;20.93;96.88
6565;BME280;3316;44.118;27.258;2023-04-25T10:28:14;100157.06;;;20.85;99.47
6565;BME280;3316;44.118;27.258;2023-04-25T10:30:59;100167.88;;;20.68;100.00
6565;BME280;3316;44.118;27.258;2023-04-25T10:33:40;100153.47;;;20.40;100.00
6565;BME280;3316;44.118;27.258;2023-04-25T10:36:17;100168.22;;;20.32;100.00
6565;BME280;3316;44.118;27.258;2023-04-25T10:38:44;100168.66;;;20.09;100.00
6565;BME280;3316;44.118;27.258;2023-04-25T10:41:11;100167.63;;;20.27;100.00
6565;BME280;3316;44.118;27.258;2023-04-25T10:43:44;100171.72;;;20.48;100.00
6565;BME280;3316;44.118;27.258;2023-04-25T10:48:59;100167.28;;;21.08;100.00
6565;BME280;3316;44.118;27.258;2023-04-25T10:51:26;100171.97;;;21.04;100.00
6565;BME280;3316;44.118;27.258;2023-04-25T10:56:33;100163.09;;;21.74;96.50
6565;BME280;3316;44.118;27.258;2023-04-25T10:59:08;100165.38;;;21.94;95.81
6565;BME280;3316;44.118;27.258;2023-04-25T11:01:37;100166.91;;;21.98;94.53
6565;BME280;3316;44.118;27.258;2023-04-25T11:04:03;100162.34;;;21.58;96.80
6565;BME280;3316;44.118;27.258;2023-04-25T11:06:37;100156.97;;;21.30;99.29
6565;BME280;3316;44.118;27.258;2023-04-25T11:09:11;100156.59;;;21.22;100.00
6565;BME280;3316;44.118;27.258;2023-04-25T11:11:40;100105.09;;;20.75;100.00
6565;BME280;3316;44.118;27.258;2023-04-25T11:14:05;100155.19;;;21.01;100.00
6565;BME280;3316;44.118;27.258;2023-04-25T11:16:31;100150.25;;;20.79;100.00
6565;BME280;3316;44.118;27.258;2023-04-25T11:18:57;100160.88;;;20.95;100.00
6565;BME280;3316;44.118;27.258;2023-04-25T11:21:25;100148.97;;;21.00;100.00
6565;BME280;3316;44.118;27.258;2023-04-25T11:23:51;100152.00;;;21.10;100.00
6565;BME280;3316;44.118;27.258;2023-04-25T11:26:19;100152.44;;;21.16;100.00
6565;BME280;3316;44.118;27.258;2023-04-25T11:28:45;100152.75;;;21.40;100.00
6565;BME280;3316;44.118;27.258;2023-04-25T11:31:12;100145.81;;;21.38;100.00
6565;BME280;3316;44.118;27.258;2023-04-25T11:33:37;100141.69;;;21.46;100.00
6565;BME280;3316;44.118;27.258;2023-04-25T11:36:03;100131.50;;;21.79;99.92
6565;BME280;3316;44.118;27.258;2023-04-25T11:38:29;100144.16;;;22.18;96.72
6565;BME280;3316;44.118;27.258;2023-04-25T11:40:55;100138.94;;;22.02;93.53
6565;BME280;3316;44.118;27.258;2023-04-25T11:43:21;100128.28;;;21.60;94.75
6565;BME280;3316;44.118;27.258;2023-04-25T11:45:51;100139.16;;;21.71;96.75
6565;BME280;3316;44.118;27.258;2023-04-25T11:48:20;100127.72;;;21.55;96.98
6565;BME280;3316;44.118;27.258;2023-04-25T11:50:45;100141.47;;;21.91;94.48
6565;BME280;3316;44.118;27.258;2023-04-25T11:53:11;100129.97;;;21.75;96.51
6565;BME280;3316;44.118;27.258;2023-04-25T11:55:36;100120.03;;;21.77;96.58
6565;BME280;3316;44.118;27.258;2023-04-25T11:58:03;100119.50;;;22.13;94.83
6565;BME280;3316;44.118;27.258;2023-04-25T12:00:30;100127.25;;;22.18;93.35
6565;BME280;3316;44.118;27.258;2023-04-25T12:02:57;100115.00;;;22.13;91.55
6565;BME280;3316;44.118;27.258;2023-04-25T12:05:27;100057.38;;;21.80;91.02
6565;BME280;3316;44.118;27.258;2023-04-25T12:07:52;100104.84;;;22.19;89.99
6565;BME280;3316;44.118;27.258;2023-04-25T12:10:19;100091.44;;;22.19;90.47
6565;BME280;3316;44.118;27.258;2023-04-25T12:12:46;100097.00;;;22.55;89.22
6565;BME280;3316;44.118;27.258;2023-04-25T12:17:48;100089.69;;;23.21;83.69
6565;BME280;3316;44.118;27.258;2023-04-25T12:20:18;100090.44;;;23.23;79.29
6565;BME280;3316;44.118;27.258;2023-04-25T12:22:47;100094.44;;;23.05;78.39
6565;BME280;3316;44.118;27.258;2023-04-25T12:25:37;100081.88;;;22.93;79.99
6565;BME280;3316;44.118;27.258;2023-04-25T12:28:11;100078.09;;;22.83;80.50
6565;BME280;3316;44.118;27.258;2023-04-25T12:33:22;100082.88;;;22.53;83.40
6565;BME280;3316;44.118;27.258;2023-04-25T12:35:47;100070.91;;;22.58;83.52
6565;BME280;3316;44.118;27.258;2023-04-25T12:40:47;100068.53;;;22.79;80.91
6565;BME280;3316;44.118;27.258;2023-04-25T12:43:12;100055.88;;;22.81;80.47
6565;BME280;3316;44.118;27.258;2023-04-25T12:45:38;100046.22;;;22.91;78.81
6565;BME280;3316;44.118;27.258;2023-04-25T12:48:03;100059.53;;;22.92;78.04
6565;BME280;3316;44.118;27.258;2023-04-25T12:50:29;100054.59;;;22.86;77.81
6565;BME280;3316;44.118;27.258;2023-04-25T12:52:55;100050.97;;;22.87;79.17
6565;BME280;3316;44.118;27.258;2023-04-25T12:55:20;100046.97;;;22.93;77.52
6565;BME280;3316;44.118;27.258;2023-04-25T12:57:46;100052.78;;;22.87;76.74
6565;BME280;3316;44.118;27.258;2023-04-25T13:00:11;100020.25;;;22.79;77.55
6565;BME280;3316;44.118;27.258;2023-04-25T13:02:39;100023.72;;;22.68;78.38
6565;BME280;3316;44.118;27.258;2023-04-25T13:05:05;100004.94;;;22.68;77.32